createdAt,value
2023-05-01T00:02:10.467Z,55.23
2023-05-01T00:05:13.476Z,56.15
2023-05-01T00:08:16.115Z,56.43
2023-05-01T00:11:18.863Z,56.64
2023-05-01T00:14:21.700Z,56.09
2023-05-01T00:17:24.278Z,56.04
2023-05-01T00:20:28.268Z,57.05
2023-05-01T00:23:31.075Z,56.61
2023-05-01T00:26:33.583Z,56.69
2023-05-01T00:29:36.423Z,56.80
2023-05-01T00:32:39.064Z,56.79
2023-05-01T00:35:44.625Z,56.77
2023-05-01T00:38:47.163Z,56.17
2023-05-01T00:41:49.847Z,55.94
2023-05-01T00:44:53.454Z,55.70
2023-05-01T00:47:56.009Z,56.22
2023-05-01T00:50:58.858Z,57.29
2023-05-01T00:54:01.884Z,57.48
2023-05-01T00:57:04.901Z,57.56
2023-05-01T01:00:08.763Z,56.97
2023-05-01T01:03:11.843Z,56.28
2023-05-01T01:06:41.238Z,56.61
2023-05-01T01:10:14.672Z,56.74
2023-05-01T01:13:30.233Z,56.88
2023-05-01T01:16:45.567Z,56.83
2023-05-01T01:20:23.803Z,57.42
2023-05-01T01:23:51.515Z,56.88
2023-05-01T01:27:18.382Z,57.40
2023-05-01T01:30:23.839Z,57.28
2023-05-01T01:33:51.681Z,56.89
2023-05-01T01:37:02.786Z,56.86
2023-05-01T01:40:11.717Z,56.22
2023-05-01T01:43:21.125Z,55.70
2023-05-01T01:46:25.222Z,55.85
2023-05-01T01:49:31.667Z,56.44
2023-05-01T01:52:37.186Z,57.09
2023-05-01T01:55:41.445Z,57.31
2023-05-01T01:58:47.219Z,57.13
2023-05-01T02:01:51.233Z,56.86
2023-05-01T02:04:57.132Z,56.65
2023-05-01T02:08:00.566Z,56.90
2023-05-01T02:11:05.154Z,57.42
2023-05-01T02:14:09.323Z,57.97
2023-05-01T02:17:13.699Z,59.27
2023-05-01T02:20:16.657Z,60.67
2023-05-01T02:23:19.319Z,61.43
2023-05-01T02:26:26.643Z,62.00
2023-05-01T02:29:29.930Z,62.85
2023-05-01T02:32:32.689Z,63.02
2023-05-01T02:35:44.994Z,63.28
2023-05-01T02:38:51.059Z,63.01
2023-05-01T02:41:56.716Z,62.75
2023-05-01T02:45:09.450Z,62.00
2023-05-01T02:48:15.895Z,62.14
2023-05-01T02:51:21.074Z,61.81
2023-05-01T02:54:23.789Z,61.86
2023-05-01T02:57:26.614Z,61.49
2023-05-01T03:00:30.033Z,61.54
2023-05-01T03:03:32.579Z,61.56
2023-05-01T03:06:35.032Z,61.95
2023-05-01T03:09:38.269Z,62.03
2023-05-01T03:12:41.040Z,61.76
2023-05-01T03:15:44.964Z,61.81
2023-05-01T03:18:47.670Z,62.89
2023-05-01T03:21:50.389Z,62.48
2023-05-01T03:24:53.022Z,62.25
2023-05-01T03:27:55.620Z,62.32
2023-05-01T03:30:58.978Z,62.54
2023-05-01T03:34:01.503Z,62.34
2023-05-01T03:37:05.156Z,62.53
2023-05-01T03:40:08.562Z,63.02
2023-05-01T03:43:29.826Z,64.27
2023-05-01T03:46:34.264Z,65.17
2023-05-01T03:49:36.916Z,65.60
2023-05-01T03:52:39.454Z,65.97
2023-05-01T03:55:42.363Z,66.52
2023-05-01T03:58:45.539Z,66.47
2023-05-01T04:01:48.450Z,66.68
2023-05-01T04:04:51.564Z,66.69
2023-05-01T04:07:54.275Z,66.85
2023-05-01T04:10:57.420Z,67.06
2023-05-01T04:13:59.934Z,67.86
2023-05-01T04:17:02.431Z,67.63
2023-05-01T04:20:09.407Z,67.28
2023-05-01T04:23:12.844Z,67.51
2023-05-01T04:26:16.377Z,68.68
2023-05-01T04:29:19.512Z,68.52
2023-05-01T04:32:23.525Z,68.18
2023-05-01T04:35:26.946Z,67.68
2023-05-01T04:38:31.191Z,67.72
2023-05-01T04:41:34.928Z,67.55
2023-05-01T04:44:37.995Z,67.93
2023-05-01T04:47:40.879Z,68.17
2023-05-01T04:50:44.416Z,67.97
2023-05-01T04:53:47.316Z,68.19
2023-05-01T04:56:59.516Z,68.31
2023-05-01T05:00:03.324Z,68.31
2023-05-01T05:03:08.609Z,68.13
2023-05-01T05:06:11.630Z,68.24
2023-05-01T05:09:15.381Z,67.58
2023-05-01T05:12:18.982Z,67.45
2023-05-01T05:15:22.026Z,66.45
2023-05-01T05:18:24.975Z,63.63
2023-05-01T05:21:27.694Z,63.49
2023-05-01T05:24:32.886Z,62.52
2023-05-01T05:27:38.252Z,59.68
2023-05-01T05:30:40.948Z,60.39
2023-05-01T05:33:46.332Z,60.14
2023-05-01T05:36:50.706Z,59.08
2023-05-01T05:39:57.984Z,57.12
2023-05-01T05:43:00.989Z,56.32
2023-05-01T05:46:05.300Z,52.08
2023-05-01T05:49:10.149Z,50.59
2023-05-01T05:52:12.694Z,52.41
2023-05-01T05:55:15.508Z,51.16
2023-05-01T05:58:27.910Z,50.68
2023-05-01T06:01:30.985Z,50.88
2023-05-01T06:04:34.015Z,48.30
2023-05-01T06:07:37.543Z,48.41
2023-05-01T06:10:42.851Z,46.53
2023-05-01T06:13:45.892Z,42.49
2023-05-01T06:16:48.701Z,40.50
2023-05-01T06:19:53.444Z,40.24
2023-05-01T06:22:56.658Z,40.18
2023-05-01T06:26:08.093Z,38.97
2023-05-01T06:29:10.699Z,39.07
2023-05-01T06:32:13.532Z,38.81
2023-05-01T06:35:16.187Z,37.32
2023-05-01T06:38:18.753Z,37.05
2023-05-01T06:41:22.181Z,37.30
2023-05-01T06:44:25.010Z,36.82
2023-05-01T06:47:27.653Z,35.58
2023-05-01T06:50:30.212Z,35.18
2023-05-01T06:53:35.441Z,35.76
2023-05-01T06:56:37.962Z,35.58
2023-05-01T06:59:40.647Z,35.51
2023-05-01T07:02:45.375Z,34.15
2023-05-01T07:05:47.930Z,33.40
2023-05-01T07:08:51.826Z,33.89
2023-05-01T07:11:56.998Z,34.28
2023-05-01T07:14:59.933Z,34.28
2023-05-01T07:18:03.294Z,33.78
2023-05-01T07:21:06.019Z,34.39
2023-05-01T07:24:08.553Z,33.54
2023-05-01T07:27:11.326Z,34.04
2023-05-01T07:30:13.927Z,33.72
2023-05-01T07:33:16.822Z,33.99
2023-05-01T07:36:20.626Z,33.78
2023-05-01T07:39:23.416Z,33.80
2023-05-01T07:42:27.708Z,33.60
2023-05-01T07:45:30.397Z,34.44
2023-05-01T07:48:33.119Z,34.39
2023-05-01T07:51:38.326Z,34.18
2023-05-01T07:54:41.800Z,34.07
2023-05-01T07:57:44.356Z,34.06
2023-05-01T08:00:47.002Z,33.83
2023-05-01T08:03:51.022Z,34.08
2023-05-01T08:06:54.267Z,33.42
2023-05-01T08:09:59.988Z,32.94
2023-05-01T08:13:02.887Z,32.92
2023-05-01T08:16:06.051Z,32.63
2023-05-01T08:19:08.749Z,32.36
2023-05-01T08:22:12.509Z,32.89
2023-05-01T08:25:15.188Z,32.13
2023-05-01T08:28:20.896Z,31.50
2023-05-01T08:31:25.265Z,31.78
2023-05-01T08:34:28.016Z,31.59
2023-05-01T08:37:30.507Z,31.33
2023-05-01T08:40:37.854Z,31.11
2023-05-01T08:43:41.115Z,31.12
2023-05-01T08:46:57.488Z,30.60
2023-05-01T08:50:01.932Z,30.81
2023-05-01T08:53:05.671Z,30.05
2023-05-01T08:56:11.273Z,29.52
2023-05-01T08:59:15.201Z,29.38
2023-05-01T09:02:18.664Z,29.40
2023-05-01T09:05:21.778Z,28.85
2023-05-01T09:08:24.390Z,28.22
2023-05-01T09:11:27.930Z,28.32
2023-05-01T09:14:32.228Z,28.15
2023-05-01T09:17:37.004Z,28.29
2023-05-01T09:20:40.494Z,27.45
2023-05-01T09:23:43.300Z,27.97
2023-05-01T09:26:46.240Z,26.45
2023-05-01T09:29:49.183Z,27.34
2023-05-01T09:33:13.858Z,26.93
2023-05-01T09:36:18.092Z,26.82
2023-05-01T09:39:23.488Z,26.49
2023-05-01T09:42:26.032Z,25.67
2023-05-01T09:45:28.729Z,25.86
2023-05-01T09:48:34.836Z,25.39
2023-05-01T09:51:38.293Z,25.62
2023-05-01T09:54:41.432Z,25.52
2023-05-01T09:57:46.587Z,24.86
2023-05-01T10:00:51.908Z,23.20
2023-05-01T10:03:56.329Z,23.90
2023-05-01T10:07:13.342Z,22.90
2023-05-01T10:10:25.294Z,22.60
2023-05-01T10:13:27.869Z,20.99
2023-05-01T10:16:31.490Z,18.68
2023-05-01T10:19:34.073Z,17.62
2023-05-01T10:22:36.937Z,16.83
2023-05-01T10:25:42.003Z,15.44
2023-05-01T10:28:48.061Z,15.32
2023-05-01T10:31:50.860Z,13.76
2023-05-01T10:35:00.917Z,13.56
2023-05-01T10:38:07.761Z,12.35
2023-05-01T10:41:10.844Z,12.30
2023-05-01T10:44:24.820Z,11.74
2023-05-01T10:47:28.581Z,11.65
2023-05-01T10:50:31.191Z,11.78
2023-05-01T10:53:33.883Z,11.69
2023-05-01T10:56:40.206Z,12.43
2023-05-01T11:00:03.853Z,13.02
2023-05-01T11:03:22.012Z,12.45
2023-05-01T11:06:25.298Z,12.10
2023-05-01T11:09:43.331Z,11.60
2023-05-01T11:12:46.220Z,11.02
2023-05-01T11:15:49.207Z,10.61
2023-05-01T11:18:51.984Z,10.17
2023-05-01T11:21:55.778Z,10.50
2023-05-01T11:24:59.101Z,11.78
2023-05-01T11:28:03.343Z,10.71
2023-05-01T11:31:06.613Z,9.79
2023-05-01T11:34:10.038Z,9.76
2023-05-01T11:37:12.488Z,10.05
2023-05-01T11:40:23.982Z,10.16
2023-05-01T11:43:26.915Z,10.84
2023-05-01T11:46:31.333Z,10.32
2023-05-01T11:49:34.493Z,9.56
2023-05-01T11:52:53.498Z,8.96
2023-05-01T11:55:56.817Z,9.00
2023-05-01T11:59:09.646Z,8.95
2023-05-01T12:02:20.441Z,8.46
2023-05-01T12:05:24.677Z,7.69
2023-05-01T12:08:28.767Z,8.25
2023-05-01T12:11:31.787Z,9.17
2023-05-01T12:14:34.787Z,8.72
2023-05-01T12:17:37.417Z,8.46
2023-05-01T12:20:46.249Z,7.98
2023-05-01T12:23:49.878Z,9.42
2023-05-01T12:27:00.890Z,9.58
2023-05-01T12:30:03.618Z,9.88
2023-05-01T12:33:14.407Z,7.89
2023-05-01T12:36:18.074Z,7.36
2023-05-01T12:39:21.142Z,7.01
2023-05-01T12:42:24.087Z,6.93
2023-05-01T12:45:26.722Z,6.77
2023-05-01T12:48:31.349Z,7.07
2023-05-01T12:51:33.964Z,7.27
2023-05-01T12:54:44.037Z,6.78
2023-05-01T12:57:54.321Z,7.71
2023-05-01T13:00:56.934Z,7.78
2023-05-01T13:03:59.495Z,8.08
2023-05-01T13:07:02.732Z,7.76
2023-05-01T13:10:06.441Z,7.63
2023-05-01T13:13:09.203Z,7.10
2023-05-01T13:16:14.147Z,7.24
2023-05-01T13:19:28.465Z,7.43
2023-05-01T13:22:32.515Z,7.05
2023-05-01T13:25:35.981Z,7.21
2023-05-01T13:28:46.919Z,7.52
2023-05-01T13:31:49.595Z,7.35
2023-05-01T13:34:54.211Z,7.31
2023-05-01T13:37:56.999Z,7.28
2023-05-01T13:40:59.583Z,6.99
2023-05-01T13:44:02.121Z,7.72
2023-05-01T13:47:04.698Z,9.37
2023-05-01T13:50:13.338Z,9.34
2023-05-01T13:53:16.386Z,8.89
2023-05-01T13:56:19.073Z,9.66
2023-05-01T13:59:21.667Z,9.18
2023-05-01T14:02:28.001Z,9.36
2023-05-01T14:05:30.950Z,9.48
2023-05-01T14:08:33.995Z,9.77
2023-05-01T14:11:47.182Z,8.69
2023-05-01T14:14:50.163Z,9.35
2023-05-01T14:17:53.219Z,9.50
2023-05-01T14:20:56.120Z,9.28
2023-05-01T14:23:59.095Z,10.51
2023-05-01T14:27:01.969Z,14.56
2023-05-01T14:30:08.336Z,17.46
2023-05-01T14:33:14.445Z,18.27
2023-05-01T14:36:18.776Z,19.23
2023-05-01T14:39:33.170Z,19.00
2023-05-01T14:42:36.529Z,19.51
2023-05-01T14:45:46.220Z,19.59
2023-05-01T14:48:48.940Z,19.52
2023-05-01T14:51:53.287Z,20.37
2023-05-01T14:54:55.915Z,20.07
2023-05-01T14:57:58.647Z,21.21
2023-05-01T15:01:02.589Z,21.02
2023-05-01T15:04:07.680Z,20.99
2023-05-01T15:07:10.470Z,21.71
2023-05-01T15:10:13.460Z,21.44
2023-05-01T15:13:16.068Z,21.57
2023-05-01T15:16:18.978Z,21.67
2023-05-01T15:19:22.619Z,21.31
2023-05-01T15:22:25.629Z,21.47
2023-05-01T15:25:28.426Z,21.19
2023-05-01T15:28:31.371Z,21.55
2023-05-01T15:31:34.391Z,21.26
2023-05-01T15:34:38.155Z,22.01
2023-05-01T15:37:41.510Z,22.10
2023-05-01T15:40:46.709Z,22.27
2023-05-01T15:43:49.328Z,22.83
2023-05-01T15:46:53.119Z,23.04
2023-05-01T15:49:56.145Z,23.00
2023-05-01T15:52:58.859Z,23.24
2023-05-01T15:56:01.535Z,23.22
2023-05-01T15:59:05.694Z,23.55
2023-05-01T16:02:08.947Z,23.93
2023-05-01T16:05:14.235Z,24.18
2023-05-01T16:08:18.187Z,24.25
2023-05-01T16:11:20.954Z,24.88
2023-05-01T16:14:23.971Z,24.59
2023-05-01T16:17:26.536Z,24.69
2023-05-01T16:20:34.453Z,25.10
2023-05-01T16:23:39.712Z,25.63
2023-05-01T16:26:44.599Z,25.72
2023-05-01T16:29:47.268Z,25.45
2023-05-01T16:32:50.015Z,25.42
2023-05-01T16:35:53.151Z,25.92
2023-05-01T16:38:56.207Z,26.04
2023-05-01T16:41:59.209Z,25.63
2023-05-01T16:45:02.229Z,25.61
2023-05-01T16:48:06.247Z,25.75
2023-05-01T16:51:10.066Z,26.13
2023-05-01T16:54:12.880Z,26.05
2023-05-01T16:57:17.220Z,26.25
2023-05-01T17:00:20.358Z,26.02
2023-05-01T17:03:23.315Z,26.14
2023-05-01T17:06:26.531Z,26.45
2023-05-01T17:09:29.069Z,26.58
2023-05-01T17:12:31.987Z,26.30
2023-05-01T17:15:34.539Z,27.15
2023-05-01T17:18:37.153Z,27.46
2023-05-01T17:21:39.957Z,27.63
2023-05-01T17:24:42.648Z,26.76
2023-05-01T17:27:45.250Z,27.40
2023-05-01T17:30:49.160Z,27.53
2023-05-01T17:33:51.908Z,27.37
2023-05-01T17:36:57.195Z,28.33
2023-05-01T17:40:01.012Z,28.09
2023-05-01T17:43:04.352Z,27.82
2023-05-01T17:46:07.223Z,27.84
2023-05-01T17:49:10.075Z,28.89
2023-05-01T17:52:12.905Z,28.68
2023-05-01T17:55:18.789Z,28.48
2023-05-01T17:58:21.706Z,28.51
2023-05-01T18:01:24.691Z,29.10
2023-05-01T18:04:28.950Z,29.33
2023-05-01T18:07:32.351Z,29.21
2023-05-01T18:10:35.405Z,29.01
2023-05-01T18:13:40.105Z,28.65
2023-05-01T18:16:43.398Z,28.47
2023-05-01T18:19:47.102Z,28.83
2023-05-01T18:22:50.692Z,29.14
2023-05-01T18:25:54.933Z,28.91
2023-05-01T18:28:57.743Z,28.92
2023-05-01T18:32:01.499Z,28.91
2023-05-01T18:35:06.449Z,29.24
2023-05-01T18:38:10.933Z,29.53
2023-05-01T18:41:15.221Z,29.36
2023-05-01T18:44:19.231Z,29.84
2023-05-01T18:47:23.625Z,29.93
2023-05-01T18:50:29.103Z,29.87
2023-05-01T18:53:32.159Z,30.15
2023-05-01T18:56:35.422Z,29.87
2023-05-01T18:59:39.206Z,29.95
2023-05-01T19:02:43.004Z,29.68
2023-05-01T19:05:46.328Z,29.61
2023-05-01T19:08:50.058Z,29.79
2023-05-01T19:11:53.687Z,29.90
2023-05-01T19:14:57.019Z,29.98
2023-05-01T19:18:00.797Z,30.45
2023-05-01T19:21:05.402Z,29.84
2023-05-01T19:24:08.966Z,30.27
2023-05-01T19:27:12.542Z,30.32
2023-05-01T19:30:16.511Z,30.58
2023-05-01T19:33:22.130Z,30.64
2023-05-01T19:36:25.927Z,31.01
2023-05-01T19:39:29.309Z,31.17
2023-05-01T19:42:34.543Z,31.09
2023-05-01T19:45:37.985Z,31.68
2023-05-01T19:48:41.650Z,31.34
2023-05-01T19:51:46.185Z,31.45
2023-05-01T19:54:49.994Z,32.00
2023-05-01T19:57:54.113Z,32.32
2023-05-01T20:00:59.277Z,32.63
2023-05-01T20:04:02.691Z,32.57
2023-05-01T20:07:06.612Z,32.30
2023-05-01T20:10:11.233Z,32.75
2023-05-01T20:13:15.033Z,32.86
2023-05-01T20:16:18.055Z,32.87
2023-05-01T20:19:20.741Z,33.42
2023-05-01T20:22:25.219Z,33.65
2023-05-01T20:25:28.121Z,33.39
2023-05-01T20:28:31.068Z,33.73
2023-05-01T20:31:36.360Z,33.62
2023-05-01T20:34:39.114Z,33.89
2023-05-01T20:37:41.894Z,34.25
2023-05-01T20:40:44.970Z,34.07
2023-05-01T20:43:47.849Z,34.20
2023-05-01T20:46:51.193Z,34.48
2023-05-01T20:49:57.212Z,34.14
2023-05-01T20:53:01.319Z,34.51
2023-05-01T20:56:06.283Z,34.60
2023-05-01T20:59:08.922Z,34.71
2023-05-01T21:02:11.722Z,34.35
2023-05-01T21:05:14.442Z,34.51
2023-05-01T21:08:17.036Z,34.81
2023-05-01T21:11:19.643Z,34.78
2023-05-01T21:14:22.312Z,34.65
2023-05-01T21:17:25.174Z,34.93
2023-05-01T21:20:34.145Z,34.70
2023-05-01T21:23:40.845Z,34.70
2023-05-01T21:26:43.982Z,35.12
2023-05-01T21:29:56.924Z,35.50
2023-05-01T21:33:05.529Z,35.60
2023-05-01T21:36:08.212Z,35.51
2023-05-01T21:39:11.526Z,35.91
2023-05-01T21:42:14.659Z,36.07
2023-05-01T21:45:19.118Z,35.75
2023-05-01T21:48:22.043Z,35.64
2023-05-01T21:51:28.588Z,35.73
2023-05-01T21:54:31.903Z,35.69
2023-05-01T21:57:39.203Z,35.51
2023-05-01T22:00:42.029Z,35.87
2023-05-01T22:03:47.439Z,35.84
2023-05-01T22:06:50.945Z,36.06
2023-05-01T22:09:53.967Z,35.70
2023-05-01T22:12:56.802Z,35.82
2023-05-01T22:16:00.900Z,36.11
2023-05-01T22:19:03.537Z,35.82
2023-05-01T22:22:06.165Z,35.93
2023-05-01T22:25:10.353Z,35.85
2023-05-01T22:28:13.448Z,35.44
2023-05-01T22:31:16.855Z,35.88
2023-05-01T22:34:20.031Z,35.92
2023-05-01T22:37:23.103Z,35.99
2023-05-01T22:40:26.515Z,35.53
2023-05-01T22:43:29.425Z,35.63
2023-05-01T22:46:32.239Z,36.07
2023-05-01T22:49:35.491Z,35.92
2023-05-01T22:52:38.114Z,36.59
2023-05-01T22:55:40.838Z,37.44
2023-05-01T22:58:43.568Z,37.48
2023-05-01T23:01:46.606Z,37.48
2023-05-01T23:04:49.603Z,37.56
2023-05-01T23:07:52.241Z,37.94
2023-05-01T23:10:55.014Z,37.40
2023-05-01T23:13:58.069Z,38.04
2023-05-01T23:17:01.099Z,38.43
2023-05-01T23:20:07.362Z,39.02
2023-05-01T23:23:14.039Z,39.16
2023-05-01T23:26:28.971Z,39.48
2023-05-01T23:29:32.203Z,39.31
2023-05-01T23:32:35.284Z,39.61
2023-05-01T23:35:37.969Z,39.83
2023-05-01T23:38:40.826Z,39.77
2023-05-01T23:41:46.225Z,39.97
2023-05-01T23:44:49.167Z,40.48
2023-05-01T23:47:51.945Z,40.68
2023-05-01T23:50:55.857Z,39.94
2023-05-01T23:53:59.482Z,40.12
2023-05-01T23:57:02.623Z,40.79
